sensor_id;sensor_type;location;lat;lon;timestamp;pressure;altitude;pressure_sealevel;temperature;humidity
42727;BME280;28372;56.832;60.658;2023-02-23T00:02:06;95643.38;;;-6.00;65.63
42727;BME280;28372;56.832;60.658;2023-02-23T00:04:34;95638.75;;;-6.03;67.15
42727;BME280;28372;56.832;60.658;2023-02-23T00:07:03;95636.13;;;-6.03;68.34
42727;BME280;28372;56.832;60.658;2023-02-23T00:09:32;95647.88;;;-6.00;69.45
42727;BME280;28372;56.832;60.658;2023-02-23T00:12:05;95636.06;;;-5.94;69.46
42727;BME280;28372;56.832;60.658;2023-02-23T00:14:37;95631.13;;;-5.96;68.37
42727;BME280;28372;56.832;60.658;2023-02-23T00:17:05;95629.16;;;-6.08;69.66
42727;BME280;28372;56.832;60.658;2023-02-23T00:19:41;95630.09;;;-6.04;70.60
42727;BME280;28372;56.832;60.658;2023-02-23T00:22:12;95636.91;;;-6.03;70.10
42727;BME280;28372;56.832;60.658;2023-02-23T00:24:39;95629.00;;;-6.03;70.41
42727;BME280;28372;56.832;60.658;2023-02-23T00:27:09;95637.22;;;-6.04;71.87
42727;BME280;28372;56.832;60.658;2023-02-23T00:29:39;95629.66;;;-6.14;75.69
42727;BME280;28372;56.832;60.658;2023-02-23T00:32:07;95628.78;;;-6.18;74.14
42727;BME280;28372;56.832;60.658;2023-02-23T00:34:35;95638.97;;;-6.17;75.29
42727;BME280;28372;56.832;60.658;2023-02-23T00:37:03;95632.44;;;-6.11;70.78
42727;BME280;28372;56.832;60.658;2023-02-23T00:39:31;95621.47;;;-6.13;66.71
42727;BME280;28372;56.832;60.658;2023-02-23T00:41:58;95636.31;;;-6.08;64.08
42727;BME280;28372;56.832;60.658;2023-02-23T00:44:30;95627.84;;;-6.23;64.70
42727;BME280;28372;56.832;60.658;2023-02-23T00:47:01;95622.75;;;-6.28;63.08
42727;BME280;28372;56.832;60.658;2023-02-23T00:49:29;95620.63;;;-6.34;64.32
42727;BME280;28372;56.832;60.658;2023-02-23T00:51:57;95644.56;;;-6.27;67.90
42727;BME280;28372;56.832;60.658;2023-02-23T00:54:24;95627.75;;;-6.35;64.25
42727;BME280;28372;56.832;60.658;2023-02-23T00:56:52;95612.00;;;-6.44;64.47
42727;BME280;28372;56.832;60.658;2023-02-23T00:59:21;95618.47;;;-6.41;66.53
42727;BME280;28372;56.832;60.658;2023-02-23T01:01:49;95612.91;;;-6.48;67.57
42727;BME280;28372;56.832;60.658;2023-02-23T01:04:20;95615.84;;;-6.41;69.55
42727;BME280;28372;56.832;60.658;2023-02-23T01:06:49;95612.28;;;-6.45;71.66
42727;BME280;28372;56.832;60.658;2023-02-23T01:09:18;95619.72;;;-6.47;73.84
42727;BME280;28372;56.832;60.658;2023-02-23T01:12:01;95615.38;;;-6.43;76.09
42727;BME280;28372;56.832;60.658;2023-02-23T01:14:34;95606.09;;;-6.41;75.37
42727;BME280;28372;56.832;60.658;2023-02-23T01:17:03;95606.53;;;-6.39;73.15
42727;BME280;28372;56.832;60.658;2023-02-23T01:19:31;95597.25;;;-6.36;72.71
42727;BME280;28372;56.832;60.658;2023-02-23T01:22:02;95602.19;;;-6.34;70.02
42727;BME280;28372;56.832;60.658;2023-02-23T01:24:30;95601.59;;;-6.40;70.29
42727;BME280;28372;56.832;60.658;2023-02-23T01:26:57;95597.94;;;-6.48;71.93
42727;BME280;28372;56.832;60.658;2023-02-23T01:29:26;95606.28;;;-6.46;74.12
42727;BME280;28372;56.832;60.658;2023-02-23T01:31:53;95597.75;;;-6.43;77.21
42727;BME280;28372;56.832;60.658;2023-02-23T01:34:23;95601.16;;;-6.42;79.28
42727;BME280;28372;56.832;60.658;2023-02-23T01:36:51;95593.88;;;-6.45;80.76
42727;BME280;28372;56.832;60.658;2023-02-23T01:39:20;95595.06;;;-6.34;81.85
42727;BME280;28372;56.832;60.658;2023-02-23T01:41:48;95588.00;;;-6.42;84.51
42727;BME280;28372;56.832;60.658;2023-02-23T01:46:48;95586.47;;;-6.43;87.66
42727;BME280;28372;56.832;60.658;2023-02-23T01:49:22;95577.94;;;-6.40;88.05
42727;BME280;28372;56.832;60.658;2023-02-23T01:51:59;95576.50;;;-6.29;89.58
42727;BME280;28372;56.832;60.658;2023-02-23T01:54:32;95573.09;;;-6.29;91.87
42727;BME280;28372;56.832;60.658;2023-02-23T01:57:04;95570.91;;;-6.27;92.52
42727;BME280;28372;56.832;60.658;2023-02-23T02:02:07;95564.56;;;-6.26;96.53
42727;BME280;28372;56.832;60.658;2023-02-23T02:04:36;95565.31;;;-6.17;99.61
42727;BME280;28372;56.832;60.658;2023-02-23T02:07:13;95567.75;;;-6.12;100.00
42727;BME280;28372;56.832;60.658;2023-02-23T02:09:46;95558.66;;;-6.23;100.00
42727;BME280;28372;56.832;60.658;2023-02-23T02:12:45;95564.47;;;-6.09;100.00
42727;BME280;28372;56.832;60.658;2023-02-23T02:15:18;95556.44;;;-6.12;100.00
42727;BME280;28372;56.832;60.658;2023-02-23T02:20:32;95550.88;;;-6.11;100.00
42727;BME280;28372;56.832;60.658;2023-02-23T02:29:17;95561.72;;;-5.91;100.00
42727;BME280;28372;56.832;60.658;2023-02-23T02:32:28;95563.19;;;-5.81;100.00
42727;BME280;28372;56.832;60.658;2023-02-23T02:40:58;95548.69;;;-5.88;100.00
42727;BME280;28372;56.832;60.658;2023-02-23T02:46:45;95563.34;;;-5.78;100.00
42727;BME280;28372;56.832;60.658;2023-02-23T02:49:45;95559.66;;;-5.86;100.00
42727;BME280;28372;56.832;60.658;2023-02-23T02:52:56;95559.28;;;-5.75;100.00
42727;BME280;28372;56.832;60.658;2023-02-23T02:55:30;95553.00;;;-5.83;100.00
42727;BME280;28372;56.832;60.658;2023-02-23T02:58:06;95566.00;;;-5.87;100.00
42727;BME280;28372;56.832;60.658;2023-02-23T03:00:37;95558.59;;;-5.85;100.00
42727;BME280;28372;56.832;60.658;2023-02-23T03:03:36;95566.28;;;-5.79;100.00
42727;BME280;28372;56.832;60.658;2023-02-23T03:06:48;95565.91;;;-5.69;100.00
42727;BME280;28372;56.832;60.658;2023-02-23T03:19:33;95543.22;;;-5.61;100.00
42727;BME280;28372;56.832;60.658;2023-02-23T03:22:35;95555.31;;;-5.60;100.00
42727;BME280;28372;56.832;60.658;2023-02-23T03:25:40;95553.75;;;-5.61;100.00
42727;BME280;28372;56.832;60.658;2023-02-23T03:28:36;95556.66;;;-5.54;100.00
42727;BME280;28372;56.832;60.658;2023-02-23T03:31:45;95546.69;;;-5.48;100.00
42727;BME280;28372;56.832;60.658;2023-02-23T03:34:52;95540.78;;;-5.45;100.00
42727;BME280;28372;56.832;60.658;2023-02-23T03:37:56;95545.53;;;-5.39;100.00
42727;BME280;28372;56.832;60.658;2023-02-23T03:40:46;95537.84;;;-5.44;100.00
42727;BME280;28372;56.832;60.658;2023-02-23T03:43:40;95538.03;;;-5.49;100.00
42727;BME280;28372;56.832;60.658;2023-02-23T03:46:29;95534.09;;;-5.43;100.00
42727;BME280;28372;56.832;60.658;2023-02-23T03:49:18;95535.63;;;-5.42;100.00
42727;BME280;28372;56.832;60.658;2023-02-23T03:52:15;95533.22;;;-5.47;100.00
42727;BME280;28372;56.832;60.658;2023-02-23T03:55:11;95531.66;;;-5.48;100.00
42727;BME280;28372;56.832;60.658;2023-02-23T03:58:02;95540.22;;;-5.51;100.00
42727;BME280;28372;56.832;60.658;2023-02-23T04:00:49;95528.25;;;-5.48;100.00
42727;BME280;28372;56.832;60.658;2023-02-23T04:03:41;95530.38;;;-5.42;100.00
42727;BME280;28372;56.832;60.658;2023-02-23T04:06:35;95519.13;;;-5.30;100.00
42727;BME280;28372;56.832;60.658;2023-02-23T04:09:22;95516.25;;;-5.25;100.00
42727;BME280;28372;56.832;60.658;2023-02-23T04:12:14;95514.47;;;-5.12;100.00
42727;BME280;28372;56.832;60.658;2023-02-23T04:15:32;95506.78;;;-5.05;100.00
42727;BME280;28372;56.832;60.658;2023-02-23T04:18:06;95506.88;;;-5.01;100.00
42727;BME280;28372;56.832;60.658;2023-02-23T04:20:38;95504.16;;;-5.05;100.00
42727;BME280;28372;56.832;60.658;2023-02-23T04:23:06;95491.94;;;-5.09;100.00
42727;BME280;28372;56.832;60.658;2023-02-23T04:25:34;95504.47;;;-5.06;100.00
42727;BME280;28372;56.832;60.658;2023-02-23T04:28:02;95497.56;;;-4.99;100.00
42727;BME280;28372;56.832;60.658;2023-02-23T04:30:29;95492.28;;;-4.99;100.00
42727;BME280;28372;56.832;60.658;2023-02-23T04:32:57;95485.94;;;-4.97;100.00
42727;BME280;28372;56.832;60.658;2023-02-23T04:35:26;95476.59;;;-4.95;100.00
42727;BME280;28372;56.832;60.658;2023-02-23T04:37:56;95483.19;;;-4.89;100.00
42727;BME280;28372;56.832;60.658;2023-02-23T04:40:26;95483.31;;;-4.85;100.00
42727;BME280;28372;56.832;60.658;2023-02-23T04:42:54;95478.69;;;-4.76;100.00
42727;BME280;28372;56.832;60.658;2023-02-23T04:45:23;95490.13;;;-4.72;100.00
42727;BME280;28372;56.832;60.658;2023-02-23T04:47:51;95477.94;;;-4.64;100.00
42727;BME280;28372;56.832;60.658;2023-02-23T04:50:19;95482.88;;;-4.50;100.00
42727;BME280;28372;56.832;60.658;2023-02-23T04:52:47;95477.38;;;-4.45;100.00
42727;BME280;28372;56.832;60.658;2023-02-23T04:55:23;95470.13;;;-4.36;100.00
42727;BME280;28372;56.832;60.658;2023-02-23T04:57:55;95470.53;;;-4.34;100.00
42727;BME280;28372;56.832;60.658;2023-02-23T05:00:31;95459.09;;;-4.25;100.00
42727;BME280;28372;56.832;60.658;2023-02-23T05:03:00;95462.59;;;-4.09;100.00
42727;BME280;28372;56.832;60.658;2023-02-23T05:05:27;95460.50;;;-4.03;100.00
42727;BME280;28372;56.832;60.658;2023-02-23T05:07:55;95458.25;;;-3.89;100.00
42727;BME280;28372;56.832;60.658;2023-02-23T05:10:23;95452.00;;;-3.84;100.00
42727;BME280;28372;56.832;60.658;2023-02-23T05:12:50;95444.34;;;-3.73;100.00
42727;BME280;28372;56.832;60.658;2023-02-23T05:15:18;95450.66;;;-3.62;100.00
42727;BME280;28372;56.832;60.658;2023-02-23T05:17:48;95437.75;;;-3.51;100.00
42727;BME280;28372;56.832;60.658;2023-02-23T05:20:16;95438.28;;;-3.46;100.00
42727;BME280;28372;56.832;60.658;2023-02-23T05:22:43;95436.25;;;-3.36;100.00
42727;BME280;28372;56.832;60.658;2023-02-23T05:25:14;95433.69;;;-3.33;100.00
42727;BME280;28372;56.832;60.658;2023-02-23T05:27:42;95430.81;;;-3.12;100.00
42727;BME280;28372;56.832;60.658;2023-02-23T05:30:10;95436.53;;;-3.10;100.00
42727;BME280;28372;56.832;60.658;2023-02-23T05:32:38;95411.13;;;-3.14;100.00
42727;BME280;28372;56.832;60.658;2023-02-23T05:35:06;95428.09;;;-2.99;100.00
42727;BME280;28372;56.832;60.658;2023-02-23T05:37:33;95430.16;;;-3.08;100.00
42727;BME280;28372;56.832;60.658;2023-02-23T05:40:01;95420.41;;;-3.20;100.00
42727;BME280;28372;56.832;60.658;2023-02-23T05:42:29;95403.78;;;-3.21;100.00
42727;BME280;28372;56.832;60.658;2023-02-23T05:44:57;95408.47;;;-3.30;100.00
42727;BME280;28372;56.832;60.658;2023-02-23T05:47:24;95408.22;;;-3.25;100.00
42727;BME280;28372;56.832;60.658;2023-02-23T05:49:52;95405.31;;;-3.20;100.00
42727;BME280;28372;56.832;60.658;2023-02-23T05:52:19;95403.97;;;-3.14;100.00
42727;BME280;28372;56.832;60.658;2023-02-23T05:54:47;95407.34;;;-3.13;100.00
42727;BME280;28372;56.832;60.658;2023-02-23T05:57:15;95406.44;;;-3.05;100.00
42727;BME280;28372;56.832;60.658;2023-02-23T05:59:42;95398.25;;;-3.00;100.00
42727;BME280;28372;56.832;60.658;2023-02-23T06:02:10;95403.09;;;-2.86;100.00
42727;BME280;28372;56.832;60.658;2023-02-23T06:04:37;95390.53;;;-2.73;100.00
42727;BME280;28372;56.832;60.658;2023-02-23T06:07:05;95396.72;;;-2.49;100.00
42727;BME280;28372;56.832;60.658;2023-02-23T06:09:33;95387.53;;;-2.36;100.00
42727;BME280;28372;56.832;60.658;2023-02-23T06:12:01;95381.03;;;-2.03;100.00
42727;BME280;28372;56.832;60.658;2023-02-23T06:14:29;95389.47;;;-1.97;100.00
42727;BME280;28372;56.832;60.658;2023-02-23T06:16:56;95386.03;;;-1.78;100.00
42727;BME280;28372;56.832;60.658;2023-02-23T06:19:24;95368.13;;;-1.65;100.00
42727;BME280;28372;56.832;60.658;2023-02-23T06:21:52;95376.59;;;-1.56;100.00
42727;BME280;28372;56.832;60.658;2023-02-23T06:24:20;95376.50;;;-1.40;100.00
42727;BME280;28372;56.832;60.658;2023-02-23T06:26:47;95390.94;;;-1.38;100.00
42727;BME280;28372;56.832;60.658;2023-02-23T06:29:15;95380.69;;;-1.39;100.00
42727;BME280;28372;56.832;60.658;2023-02-23T06:31:43;95369.31;;;-1.40;100.00
42727;BME280;28372;56.832;60.658;2023-02-23T06:34:10;95362.44;;;-1.44;100.00
42727;BME280;28372;56.832;60.658;2023-02-23T06:36:38;95366.31;;;-1.38;100.00
42727;BME280;28372;56.832;60.658;2023-02-23T06:39:06;95369.50;;;-1.29;100.00
42727;BME280;28372;56.832;60.658;2023-02-23T06:41:33;95380.22;;;-1.22;100.00
42727;BME280;28372;56.832;60.658;2023-02-23T06:44:02;95372.44;;;-1.11;100.00
42727;BME280;28372;56.832;60.658;2023-02-23T06:46:29;95373.69;;;-1.05;100.00
42727;BME280;28372;56.832;60.658;2023-02-23T06:48:59;95364.19;;;-1.06;100.00
42727;BME280;28372;56.832;60.658;2023-02-23T06:51:26;95366.44;;;-1.08;100.00
42727;BME280;28372;56.832;60.658;2023-02-23T06:53:54;95372.22;;;-1.02;100.00
42727;BME280;28372;56.832;60.658;2023-02-23T06:56:22;95352.97;;;-0.95;100.00
42727;BME280;28372;56.832;60.658;2023-02-23T06:58:50;95357.16;;;-0.94;100.00
42727;BME280;28372;56.832;60.658;2023-02-23T07:01:17;95363.34;;;-0.87;100.00
42727;BME280;28372;56.832;60.658;2023-02-23T07:03:46;95369.50;;;-0.79;100.00
42727;BME280;28372;56.832;60.658;2023-02-23T07:06:13;95354.47;;;-0.71;100.00
42727;BME280;28372;56.832;60.658;2023-02-23T07:08:41;95359.13;;;-0.64;100.00
42727;BME280;28372;56.832;60.658;2023-02-23T07:11:13;95362.34;;;-0.48;100.00
42727;BME280;28372;56.832;60.658;2023-02-23T07:13:41;95363.63;;;-0.38;100.00
42727;BME280;28372;56.832;60.658;2023-02-23T07:16:09;95362.13;;;-0.39;100.00
42727;BME280;28372;56.832;60.658;2023-02-23T07:18:38;95359.03;;;-0.41;100.00
42727;BME280;28372;56.832;60.658;2023-02-23T07:21:06;95342.66;;;-0.47;100.00
42727;BME280;28372;56.832;60.658;2023-02-23T07:23:33;95350.84;;;-0.29;100.00
42727;BME280;28372;56.832;60.658;2023-02-23T07:26:01;95347.47;;;-0.26;100.00
42727;BME280;28372;56.832;60.658;2023-02-23T07:28:29;95357.44;;;-0.19;100.00
42727;BME280;28372;56.832;60.658;2023-02-23T07:30:57;95347.25;;;-0.13;100.00
42727;BME280;28372;56.832;60.658;2023-02-23T07:33:25;95351.06;;;-0.11;100.00
42727;BME280;28372;56.832;60.658;2023-02-23T07:35:53;95344.97;;;-0.11;100.00
42727;BME280;28372;56.832;60.658;2023-02-23T07:38:20;95337.00;;;-0.11;100.00
42727;BME280;28372;56.832;60.658;2023-02-23T07:40:51;95335.97;;;-0.03;100.00
42727;BME280;28372;56.832;60.658;2023-02-23T07:43:19;95339.06;;;0.03;100.00
42727;BME280;28372;56.832;60.658;2023-02-23T07:45:50;95329.63;;;0.05;100.00
42727;BME280;28372;56.832;60.658;2023-02-23T07:48:18;95326.59;;;0.07;100.00
42727;BME280;28372;56.832;60.658;2023-02-23T07:50:46;95326.75;;;0.21;100.00
42727;BME280;28372;56.832;60.658;2023-02-23T07:53:14;95326.47;;;0.30;100.00
42727;BME280;28372;56.832;60.658;2023-02-23T07:55:42;95320.88;;;0.42;100.00
42727;BME280;28372;56.832;60.658;2023-02-23T07:58:10;95314.03;;;0.41;100.00
42727;BME280;28372;56.832;60.658;2023-02-23T08:00:39;95315.94;;;0.41;100.00
42727;BME280;28372;56.832;60.658;2023-02-23T08:03:07;95308.38;;;0.46;100.00
42727;BME280;28372;56.832;60.658;2023-02-23T08:05:34;95299.63;;;0.42;100.00
42727;BME280;28372;56.832;60.658;2023-02-23T08:08:02;95282.84;;;0.38;100.00
42727;BME280;28372;56.832;60.658;2023-02-23T08:10:30;95307.59;;;0.42;100.00
42727;BME280;28372;56.832;60.658;2023-02-23T08:12:58;95294.69;;;0.44;100.00
42727;BME280;28372;56.832;60.658;2023-02-23T08:15:27;95302.66;;;0.44;100.00
42727;BME280;28372;56.832;60.658;2023-02-23T08:17:54;95288.25;;;0.45;100.00
42727;BME280;28372;56.832;60.658;2023-02-23T08:20:22;95284.84;;;0.48;100.00
42727;BME280;28372;56.832;60.658;2023-02-23T08:22:54;95292.56;;;0.61;100.00
42727;BME280;28372;56.832;60.658;2023-02-23T08:25:22;95291.38;;;0.58;100.00
42727;BME280;28372;56.832;60.658;2023-02-23T08:27:50;95299.69;;;0.53;100.00
42727;BME280;28372;56.832;60.658;2023-02-23T08:30:20;95289.47;;;0.59;100.00
42727;BME280;28372;56.832;60.658;2023-02-23T08:32:48;95276.91;;;0.56;100.00
42727;BME280;28372;56.832;60.658;2023-02-23T08:35:17;95276.91;;;0.56;100.00
42727;BME280;28372;56.832;60.658;2023-02-23T08:37:46;95264.69;;;0.47;100.00
42727;BME280;28372;56.832;60.658;2023-02-23T08:40:14;95279.25;;;0.61;100.00
42727;BME280;28372;56.832;60.658;2023-02-23T08:42:41;95284.94;;;0.59;100.00
42727;BME280;28372;56.832;60.658;2023-02-23T08:45:10;95287.56;;;0.56;100.00
42727;BME280;28372;56.832;60.658;2023-02-23T08:47:38;95292.44;;;0.50;100.00
42727;BME280;28372;56.832;60.658;2023-02-23T08:50:06;95284.47;;;0.46;100.00
42727;BME280;28372;56.832;60.658;2023-02-23T08:52:34;95289.78;;;0.46;100.00
42727;BME280;28372;56.832;60.658;2023-02-23T08:55:02;95293.63;;;0.53;100.00
42727;BME280;28372;56.832;60.658;2023-02-23T08:57:34;95287.19;;;0.57;100.00
42727;BME280;28372;56.832;60.658;2023-02-23T09:00:03;95280.41;;;0.63;100.00
42727;BME280;28372;56.832;60.658;2023-02-23T09:02:41;95275.91;;;0.71;100.00
42727;BME280;28372;56.832;60.658;2023-02-23T09:05:09;95283.19;;;0.78;100.00
42727;BME280;28372;56.832;60.658;2023-02-23T09:07:38;95280.16;;;0.79;100.00
42727;BME280;28372;56.832;60.658;2023-02-23T09:10:06;95280.56;;;0.85;100.00
42727;BME280;28372;56.832;60.658;2023-02-23T09:12:34;95279.38;;;0.79;100.00
42727;BME280;28372;56.832;60.658;2023-02-23T09:15:02;95274.88;;;0.83;100.00
42727;BME280;28372;56.832;60.658;2023-02-23T09:17:30;95273.34;;;0.85;100.00
42727;BME280;28372;56.832;60.658;2023-02-23T09:19:58;95277.16;;;0.88;100.00
42727;BME280;28372;56.832;60.658;2023-02-23T09:22:25;95268.88;;;0.97;100.00
42727;BME280;28372;56.832;60.658;2023-02-23T09:24:53;95262.41;;;0.98;100.00
42727;BME280;28372;56.832;60.658;2023-02-23T09:27:20;95260.44;;;0.91;100.00
42727;BME280;28372;56.832;60.658;2023-02-23T09:29:48;95269.22;;;0.92;100.00
42727;BME280;28372;56.832;60.658;2023-02-23T09:32:16;95266.94;;;0.94;100.00
42727;BME280;28372;56.832;60.658;2023-02-23T09:34:43;95268.84;;;0.93;100.00
42727;BME280;28372;56.832;60.658;2023-02-23T09:37:11;95268.88;;;1.00;100.00
42727;BME280;28372;56.832;60.658;2023-02-23T09:39:39;95258.22;;;1.00;100.00
42727;BME280;28372;56.832;60.658;2023-02-23T09:42:19;95256.78;;;1.10;100.00
42727;BME280;28372;56.832;60.658;2023-02-23T09:47:56;95260.63;;;1.20;100.00
42727;BME280;28372;56.832;60.658;2023-02-23T09:50:29;95266.72;;;1.20;100.00
42727;BME280;28372;56.832;60.658;2023-02-23T09:53:46;95253.81;;;1.26;100.00
42727;BME280;28372;56.832;60.658;2023-02-23T09:55:50;95253.47;;;1.31;100.00
42727;BME280;28372;56.832;60.658;2023-02-23T09:58:25;95255.38;;;1.31;100.00
42727;BME280;28372;56.832;60.658;2023-02-23T10:03:54;95259.13;;;1.23;100.00
42727;BME280;28372;56.832;60.658;2023-02-23T10:06:25;95267.47;;;1.14;100.00
42727;BME280;28372;56.832;60.658;2023-02-23T10:09:02;95260.59;;;1.16;100.00
42727;BME280;28372;56.832;60.658;2023-02-23T10:17:17;95252.63;;;1.13;100.00
42727;BME280;28372;56.832;60.658;2023-02-23T10:19:58;95244.97;;;1.04;100.00
42727;BME280;28372;56.832;60.658;2023-02-23T10:22:32;95247.97;;;0.99;100.00
42727;BME280;28372;56.832;60.658;2023-02-23T10:25:08;95248.63;;;0.81;100.00
42727;BME280;28372;56.832;60.658;2023-02-23T10:27:44;95251.28;;;0.85;100.00
42727;BME280;28372;56.832;60.658;2023-02-23T10:35:38;95247.38;;;0.68;100.00
42727;BME280;28372;56.832;60.658;2023-02-23T10:38:13;95244.81;;;0.79;100.00
42727;BME280;28372;56.832;60.658;2023-02-23T10:40:42;95246.63;;;0.71;100.00
42727;BME280;28372;56.832;60.658;2023-02-23T10:43:12;95239.06;;;0.77;100.00
42727;BME280;28372;56.832;60.658;2023-02-23T10:45:46;95230.75;;;0.82;100.00
42727;BME280;28372;56.832;60.658;2023-02-23T10:48:23;95228.09;;;0.85;100.00
42727;BME280;28372;56.832;60.658;2023-02-23T10:50:54;95219.38;;;0.85;100.00
42727;BME280;28372;56.832;60.658;2023-02-23T10:53:29;95230.00;;;0.81;100.00
42727;BME280;28372;56.832;60.658;2023-02-23T10:58:43;95223.06;;;0.70;100.00
42727;BME280;28372;56.832;60.658;2023-02-23T11:01:14;95221.47;;;0.58;100.00
42727;BME280;28372;56.832;60.658;2023-02-23T11:23:41;95220.56;;;0.39;100.00
42727;BME280;28372;56.832;60.658;2023-02-23T11:26:32;95231.88;;;0.29;100.00
42727;BME280;28372;56.832;60.658;2023-02-23T11:29:35;95229.19;;;0.25;100.00
42727;BME280;28372;56.832;60.658;2023-02-23T11:32:06;95218.84;;;0.16;100.00
42727;BME280;28372;56.832;60.658;2023-02-23T11:34:37;95226.78;;;0.09;100.00
42727;BME280;28372;56.832;60.658;2023-02-23T11:37:19;95223.44;;;0.20;100.00
42727;BME280;28372;56.832;60.658;2023-02-23T11:39:56;95216.56;;;0.11;100.00
42727;BME280;28372;56.832;60.658;2023-02-23T11:45:10;95221.50;;;0.13;100.00
42727;BME280;28372;56.832;60.658;2023-02-23T11:47:45;95215.34;;;0.05;100.00
42727;BME280;28372;56.832;60.658;2023-02-23T11:50:27;95226.75;;;0.06;100.00
42727;BME280;28372;56.832;60.658;2023-02-23T11:53:14;95219.50;;;0.03;100.00
42727;BME280;28372;56.832;60.658;2023-02-23T11:55:48;95195.00;;;-0.18;100.00
42727;BME280;28372;56.832;60.658;2023-02-23T12:01:08;95220.47;;;-0.13;100.00
42727;BME280;28372;56.832;60.658;2023-02-23T12:03:47;95217.50;;;-0.08;100.00
42727;BME280;28372;56.832;60.658;2023-02-23T12:11:42;95209.97;;;-0.40;100.00
42727;BME280;28372;56.832;60.658;2023-02-23T12:14:27;95217.94;;;-0.40;100.00
42727;BME280;28372;56.832;60.658;2023-02-23T12:17:01;95224.72;;;-0.42;100.00
42727;BME280;28372;56.832;60.658;2023-02-23T12:19:45;95212.97;;;-0.45;100.00
42727;BME280;28372;56.832;60.658;2023-02-23T12:22:19;95220.13;;;-0.49;100.00
42727;BME280;28372;56.832;60.658;2023-02-23T12:24:57;95210.25;;;-0.48;100.00
42727;BME280;28372;56.832;60.658;2023-02-23T12:27:41;95225.88;;;-0.43;100.00
42727;BME280;28372;56.832;60.658;2023-02-23T12:30:22;95224.25;;;-0.52;100.00
42727;BME280;28372;56.832;60.658;2023-02-23T12:41:08;95218.75;;;-0.70;100.00
42727;BME280;28372;56.832;60.658;2023-02-23T12:43:47;95220.94;;;-0.75;100.00
42727;BME280;28372;56.832;60.658;2023-02-23T12:46:20;95213.28;;;-0.80;100.00
42727;BME280;28372;56.832;60.658;2023-02-23T12:49:03;95226.56;;;-0.80;100.00
42727;BME280;28372;56.832;60.658;2023-02-23T12:51:38;95221.44;;;-0.96;100.00
42727;BME280;28372;56.832;60.658;2023-02-23T12:54:15;95228.63;;;-0.97;100.00
42727;BME280;28372;56.832;60.658;2023-02-23T12:56:52;95228.63;;;-0.97;100.00
42727;BME280;28372;56.832;60.658;2023-02-23T13:02:48;95225.06;;;-1.08;100.00
42727;BME280;28372;56.832;60.658;2023-02-23T13:05:30;95229.97;;;-1.10;100.00
42727;BME280;28372;56.832;60.658;2023-02-23T13:08:06;95224.22;;;-1.16;100.00
42727;BME280;28372;56.832;60.658;2023-02-23T13:16:34;95228.28;;;-1.22;100.00
42727;BME280;28372;56.832;60.658;2023-02-23T13:24:47;95226.53;;;-1.38;100.00
42727;BME280;28372;56.832;60.658;2023-02-23T13:27:35;95224.72;;;-1.33;100.00
42727;BME280;28372;56.832;60.658;2023-02-23T13:30:08;95228.41;;;-1.42;100.00
42727;BME280;28372;56.832;60.658;2023-02-23T13:32:37;95235.88;;;-1.47;100.00
42727;BME280;28372;56.832;60.658;2023-02-23T13:35:12;95228.28;;;-1.49;100.00
42727;BME280;28372;56.832;60.658;2023-02-23T13:40:51;95234.28;;;-1.52;100.00
42727;BME280;28372;56.832;60.658;2023-02-23T13:46:22;95242.59;;;-1.53;100.00
42727;BME280;28372;56.832;60.658;2023-02-23T13:51:42;95243.31;;;-1.57;100.00
42727;BME280;28372;56.832;60.658;2023-02-23T13:56:46;95237.06;;;-1.68;100.00
42727;BME280;28372;56.832;60.658;2023-02-23T13:59:29;95243.66;;;-1.81;100.00
42727;BME280;28372;56.832;60.658;2023-02-23T14:02:01;95239.91;;;-1.80;100.00
42727;BME280;28372;56.832;60.658;2023-02-23T14:04:43;95241.25;;;-1.90;100.00
42727;BME280;28372;56.832;60.658;2023-02-23T14:07:24;95251.84;;;-1.90;100.00
42727;BME280;28372;56.832;60.658;2023-02-23T14:09:57;95245.84;;;-1.87;100.00
42727;BME280;28372;56.832;60.658;2023-02-23T14:13:03;95244.56;;;-1.74;100.00
42727;BME280;28372;56.832;60.658;2023-02-23T14:21:01;95247.31;;;-1.90;100.00
42727;BME280;28372;56.832;60.658;2023-02-23T14:28:47;95234.81;;;-2.12;100.00
42727;BME280;28372;56.832;60.658;2023-02-23T14:31:34;95242.00;;;-2.13;100.00
42727;BME280;28372;56.832;60.658;2023-02-23T14:34:08;95243.66;;;-2.04;100.00
42727;BME280;28372;56.832;60.658;2023-02-23T14:36:41;95248.25;;;-2.01;100.00
42727;BME280;28372;56.832;60.658;2023-02-23T14:41:56;95240.72;;;-1.99;100.00
42727;BME280;28372;56.832;60.658;2023-02-23T14:44:29;95240.38;;;-1.98;100.00
42727;BME280;28372;56.832;60.658;2023-02-23T14:47:15;95254.03;;;-1.96;100.00
42727;BME280;28372;56.832;60.658;2023-02-23T14:49:57;95250.06;;;-2.05;100.00
42727;BME280;28372;56.832;60.658;2023-02-23T14:52:33;95250.06;;;-2.05;100.00
42727;BME280;28372;56.832;60.658;2023-02-23T14:55:23;95235.66;;;-2.08;100.00
42727;BME280;28372;56.832;60.658;2023-02-23T14:57:55;95237.09;;;-2.11;100.00
42727;BME280;28372;56.832;60.658;2023-02-23T15:00:29;95241.28;;;-2.10;100.00
42727;BME280;28372;56.832;60.658;2023-02-23T15:03:07;95234.88;;;-2.09;100.00
42727;BME280;28372;56.832;60.658;2023-02-23T15:05:46;95235.16;;;-2.14;100.00
42727;BME280;28372;56.832;60.658;2023-02-23T15:08:24;95232.88;;;-2.15;100.00
42727;BME280;28372;56.832;60.658;2023-02-23T15:11:12;95229.88;;;-2.14;100.00
42727;BME280;28372;56.832;60.658;2023-02-23T15:13:48;95221.53;;;-2.16;100.00
42727;BME280;28372;56.832;60.658;2023-02-23T15:16:34;95222.28;;;-2.15;100.00
42727;BME280;28372;56.832;60.658;2023-02-23T15:19:04;95228.66;;;-2.20;100.00
42727;BME280;28372;56.832;60.658;2023-02-23T15:21:32;95226.03;;;-2.16;100.00
42727;BME280;28372;56.832;60.658;2023-02-23T15:24:12;95232.16;;;-2.12;100.00
42727;BME280;28372;56.832;60.658;2023-02-23T15:26:42;95220.97;;;-2.25;100.00
42727;BME280;28372;56.832;60.658;2023-02-23T15:29:13;95212.91;;;-2.32;100.00
42727;BME280;28372;56.832;60.658;2023-02-23T15:31:46;95212.56;;;-2.31;100.00